createdAt,value
2019-02-20T00:00:27.098Z,1.78
2019-02-20T00:02:55.992Z,1.58
2019-02-20T00:05:24.806Z,1.26
2019-02-20T00:07:53.618Z,1.44
2019-02-20T00:10:22.660Z,1.05
2019-02-20T00:12:51.464Z,0.78
2019-02-20T00:15:20.295Z,0.69
2019-02-20T00:17:49.176Z,0.73
2019-02-20T00:20:17.989Z,0.88
2019-02-20T00:22:46.790Z,0.93
2019-02-20T00:25:15.755Z,0.97
2019-02-20T00:27:44.575Z,1.14
2019-02-20T00:30:13.478Z,1.04
2019-02-20T00:32:42.433Z,1.08
2019-02-20T00:35:11.245Z,1.08
2019-02-20T00:37:40.053Z,1.14
2019-02-20T00:40:11.031Z,1.14
2019-02-20T00:42:39.835Z,1.05
2019-02-20T00:45:31.172Z,1.08
2019-02-20T00:48:01.539Z,1.14
2019-02-20T00:50:31.927Z,1.29
2019-02-20T00:53:05.140Z,1.32
2019-02-20T00:55:33.992Z,1.21
2019-02-20T00:58:02.816Z,1.05
2019-02-20T01:00:31.665Z,1.13
2019-02-20T01:03:00.474Z,1.17
2019-02-20T01:05:29.276Z,1.09
2019-02-20T01:07:58.137Z,1.11
2019-02-20T01:10:26.951Z,1.18
2019-02-20T01:12:55.773Z,1.21
2019-02-20T01:15:24.624Z,1.15
2019-02-20T01:17:53.581Z,1.01
2019-02-20T01:20:22.388Z,1.10
2019-02-20T01:22:59.618Z,1.15
2019-02-20T01:25:21.722Z,1.15
2019-02-20T01:27:50.449Z,1.22
2019-02-20T01:30:19.339Z,1.27
2019-02-20T01:32:48.063Z,1.29
2019-02-20T01:35:16.796Z,1.23
2019-02-20T01:37:45.988Z,1.18
2019-02-20T01:40:14.716Z,1.06
2019-02-20T01:42:43.441Z,1.04
2019-02-20T01:45:12.863Z,0.97
2019-02-20T01:47:41.583Z,1.01
2019-02-20T01:50:10.406Z,0.99
2019-02-20T01:52:39.288Z,0.80
2019-02-20T01:55:09.032Z,0.66
2019-02-20T01:57:37.758Z,0.66
2019-02-20T02:00:09.457Z,0.67
2019-02-20T02:02:38.196Z,0.72
2019-02-20T02:05:14.765Z,0.93
2019-02-20T02:07:37.797Z,0.85
2019-02-20T02:10:08.521Z,0.81
2019-02-20T02:12:37.245Z,0.75
2019-02-20T02:15:07.829Z,0.77
2019-02-20T02:17:36.562Z,0.80
2019-02-20T02:20:07.838Z,0.75
2019-02-20T02:22:36.711Z,0.64
2019-02-20T02:25:06.535Z,0.62
2019-02-20T02:27:35.264Z,0.60
2019-02-20T02:30:05.610Z,0.63
2019-02-20T02:32:34.323Z,0.70
2019-02-20T02:35:03.041Z,0.59
2019-02-20T02:37:32.260Z,0.60
2019-02-20T02:40:00.986Z,0.62
2019-02-20T02:42:29.713Z,0.56
2019-02-20T02:44:58.821Z,0.50
2019-02-20T02:47:27.548Z,0.45
2019-02-20T02:49:56.274Z,0.42
2019-02-20T02:52:25.031Z,0.45
2019-02-20T02:54:53.759Z,0.46
2019-02-20T02:57:22.479Z,0.54
2019-02-20T02:59:51.248Z,0.54
2019-02-20T03:02:19.992Z,0.50
2019-02-20T03:04:48.709Z,0.52
2019-02-20T03:07:17.623Z,0.42
2019-02-20T03:09:46.712Z,0.29
2019-02-20T03:12:15.435Z,0.22
2019-02-20T03:14:44.208Z,0.30
2019-02-20T03:17:12.932Z,0.29
2019-02-20T03:19:41.662Z,0.26
2019-02-20T03:22:11.097Z,0.18
2019-02-20T03:24:39.810Z,0.13
2019-02-20T03:27:08.538Z,0.05
2019-02-20T03:29:37.402Z,0.04
2019-02-20T03:32:06.131Z,-0.01
2019-02-20T03:34:34.861Z,-0.04
2019-02-20T03:37:04.137Z,-0.07
2019-02-20T03:39:32.954Z,-0.11
2019-02-20T03:42:01.705Z,-0.11
2019-02-20T03:44:30.590Z,-0.15
2019-02-20T03:46:59.315Z,-0.13
2019-02-20T03:49:28.053Z,-0.10
2019-02-20T03:51:56.811Z,-0.08
2019-02-20T03:54:25.586Z,-0.07
2019-02-20T03:56:54.351Z,-0.11
2019-02-20T03:59:23.162Z,-0.17
2019-02-20T04:01:51.894Z,-0.22
2019-02-20T04:04:20.611Z,-0.23
2019-02-20T04:06:49.769Z,-0.22
2019-02-20T04:09:18.503Z,-0.26
2019-02-20T04:11:47.242Z,0.11
2019-02-20T04:14:16.344Z,0.38
2019-02-20T04:16:45.068Z,0.17
2019-02-20T04:19:13.785Z,0.14
2019-02-20T04:21:42.670Z,-0.15
2019-02-20T04:24:11.406Z,-0.25
2019-02-20T04:26:40.146Z,-0.40
2019-02-20T04:29:09.052Z,-0.47
2019-02-20T04:31:37.783Z,-0.50
2019-02-20T04:34:06.504Z,-0.40
2019-02-20T04:36:35.387Z,0.17
2019-02-20T04:39:04.918Z,0.17
2019-02-20T04:41:33.665Z,0.02
2019-02-20T04:44:02.508Z,-0.18
2019-02-20T04:46:31.247Z,-0.50
2019-02-20T04:48:59.981Z,-0.82
2019-02-20T04:51:28.873Z,-0.41
2019-02-20T04:53:57.589Z,-0.61
2019-02-20T04:56:26.327Z,-0.98
2019-02-20T04:58:59.953Z,-1.17
2019-02-20T05:01:28.796Z,-1.19
2019-02-20T05:03:58.986Z,-1.08
2019-02-20T05:06:27.870Z,-0.95
2019-02-20T05:08:56.619Z,-1.02
2019-02-20T05:11:25.345Z,-1.17
2019-02-20T05:13:54.311Z,-1.31
2019-02-20T05:16:23.043Z,-1.37
2019-02-20T05:18:51.781Z,-1.37
2019-02-20T05:21:20.559Z,-1.22
2019-02-20T05:23:49.289Z,-1.22
2019-02-20T05:26:18.033Z,-1.17
2019-02-20T05:28:46.909Z,-1.09
2019-02-20T05:31:16.537Z,-1.08
2019-02-20T05:33:45.552Z,-0.89
2019-02-20T05:36:14.426Z,-0.79
2019-02-20T05:38:43.156Z,-0.71
2019-02-20T05:41:11.889Z,-0.75
2019-02-20T05:43:40.775Z,-0.43
2019-02-20T05:46:09.505Z,-0.50
2019-02-20T05:48:38.233Z,-0.37
2019-02-20T05:51:07.127Z,-0.17
2019-02-20T05:53:35.859Z,-0.11
2019-02-20T05:56:04.591Z,-0.05
2019-02-20T05:58:33.367Z,0.22
2019-02-20T06:01:02.096Z,0.10
2019-02-20T06:03:30.827Z,0.09
2019-02-20T06:05:59.612Z,0.12
2019-02-20T06:08:28.354Z,0.15
2019-02-20T06:10:57.081Z,0.16
2019-02-20T06:13:25.883Z,0.37
2019-02-20T06:15:54.603Z,0.43
2019-02-20T06:18:23.352Z,0.47
2019-02-20T06:20:52.551Z,0.63
2019-02-20T06:23:21.279Z,0.69
2019-02-20T06:25:50.020Z,0.79
2019-02-20T06:28:18.857Z,0.91
2019-02-20T06:30:47.585Z,1.08
2019-02-20T06:33:16.334Z,1.38
2019-02-20T06:35:45.209Z,1.70
2019-02-20T06:38:13.940Z,1.89
2019-02-20T06:40:42.739Z,2.13
2019-02-20T06:43:11.554Z,2.42
2019-02-20T06:45:40.277Z,2.62
2019-02-20T06:48:09.018Z,2.82
2019-02-20T06:50:38.205Z,3.28
2019-02-20T06:53:06.932Z,3.50
2019-02-20T06:55:35.658Z,3.74
2019-02-20T06:58:04.448Z,3.90
2019-02-20T07:00:33.175Z,3.99
2019-02-20T07:03:01.932Z,3.80
2019-02-20T07:05:38.177Z,3.93
2019-02-20T07:08:21.589Z,3.71
2019-02-20T07:11:05.344Z,3.74
2019-02-20T07:13:53.382Z,4.10
2019-02-20T07:16:34.002Z,4.34
2019-02-20T07:19:05.638Z,4.39
2019-02-20T07:21:42.943Z,4.52
2019-02-20T07:24:26.732Z,4.62
2019-02-20T07:27:17.581Z,4.65
2019-02-20T07:29:51.953Z,5.13
2019-02-20T07:32:20.849Z,5.53
2019-02-20T07:34:49.608Z,6.01
2019-02-20T07:37:18.300Z,6.22
2019-02-20T07:39:47.088Z,6.58
2019-02-20T07:42:15.827Z,6.59
2019-02-20T07:44:44.954Z,6.82
2019-02-20T07:47:13.773Z,7.18
2019-02-20T07:49:42.515Z,7.26
2019-02-20T07:52:11.233Z,7.48
2019-02-20T07:54:40.109Z,7.66
2019-02-20T07:57:08.831Z,7.96
2019-02-20T07:59:37.572Z,8.18
2019-02-20T08:02:06.465Z,8.41
2019-02-20T08:04:35.205Z,8.54
2019-02-20T08:07:03.932Z,8.95
2019-02-20T08:09:32.975Z,9.05
2019-02-20T08:12:01.725Z,9.12
2019-02-20T08:14:30.602Z,9.20
2019-02-20T08:16:59.398Z,9.31
2019-02-20T08:19:28.134Z,9.59
2019-02-20T08:21:56.871Z,9.76
2019-02-20T08:24:25.902Z,9.65
2019-02-20T08:26:54.625Z,9.57
2019-02-20T08:29:23.372Z,9.96
2019-02-20T08:31:53.890Z,9.72
2019-02-20T08:34:22.844Z,9.89
2019-02-20T08:36:51.561Z,9.68
2019-02-20T08:39:20.448Z,10.42
2019-02-20T08:41:49.199Z,10.19
2019-02-20T08:44:17.930Z,10.50
2019-02-20T08:46:46.703Z,10.85
2019-02-20T08:49:15.444Z,11.20
2019-02-20T08:51:44.175Z,11.11
2019-02-20T08:54:13.058Z,11.40
2019-02-20T08:56:41.791Z,11.54
2019-02-20T08:59:10.524Z,11.56
2019-02-20T09:01:39.425Z,11.62
2019-02-20T09:04:08.155Z,11.77
2019-02-20T09:06:36.898Z,11.71
2019-02-20T09:09:06.601Z,11.65
2019-02-20T09:11:35.342Z,11.92
2019-02-20T09:14:04.078Z,11.98
2019-02-20T09:16:32.864Z,12.14
2019-02-20T09:19:01.602Z,11.95
2019-02-20T09:21:30.339Z,12.04
2019-02-20T09:23:59.393Z,12.39
2019-02-20T09:26:28.165Z,12.64
2019-02-20T09:28:56.995Z,12.93
2019-02-20T09:31:25.865Z,13.25
2019-02-20T09:33:54.603Z,13.52
2019-02-20T09:36:23.338Z,13.78
2019-02-20T09:38:52.156Z,13.85
2019-02-20T09:41:20.887Z,14.06
2019-02-20T09:43:49.627Z,14.36
2019-02-20T09:46:18.516Z,14.66
2019-02-20T09:48:47.246Z,14.81
2019-02-20T09:51:15.971Z,14.72
2019-02-20T09:53:44.774Z,14.88
2019-02-20T09:56:16.043Z,15.05
2019-02-20T09:58:43.968Z,15.29
2019-02-20T10:01:12.997Z,15.62
2019-02-20T10:03:41.762Z,15.91
2019-02-20T10:06:10.487Z,15.97
2019-02-20T10:08:39.251Z,16.40
2019-02-20T10:11:07.993Z,16.69
2019-02-20T10:13:36.730Z,16.51
2019-02-20T10:16:05.611Z,16.48
2019-02-20T10:18:34.362Z,16.64
2019-02-20T10:21:03.084Z,17.06
2019-02-20T10:23:31.971Z,16.99
2019-02-20T10:26:01.317Z,17.29
2019-02-20T10:28:30.217Z,17.54
2019-02-20T10:30:59.093Z,17.75
2019-02-20T10:33:27.975Z,18.14
2019-02-20T10:35:56.707Z,18.18
2019-02-20T10:38:25.676Z,18.41
2019-02-20T10:40:54.413Z,18.24
2019-02-20T10:43:23.151Z,18.51
2019-02-20T10:45:52.386Z,18.53
2019-02-20T10:48:21.117Z,18.57
2019-02-20T10:50:49.884Z,18.97
2019-02-20T10:53:18.762Z,19.00
2019-02-20T10:55:50.669Z,19.27
2019-02-20T10:58:19.406Z,19.36
2019-02-20T11:00:48.246Z,19.38
2019-02-20T11:03:16.977Z,19.35
2019-02-20T11:05:45.727Z,19.56
2019-02-20T11:08:14.883Z,19.53
2019-02-20T11:10:43.613Z,19.45
2019-02-20T11:13:12.350Z,19.43
2019-02-20T11:15:41.128Z,19.82
2019-02-20T11:18:09.865Z,19.60
2019-02-20T11:20:38.583Z,19.67
2019-02-20T11:23:07.468Z,20.05
2019-02-20T11:25:36.208Z,20.18
2019-02-20T11:28:04.955Z,19.97
2019-02-20T11:30:33.829Z,20.15
2019-02-20T11:33:03.444Z,20.44
2019-02-20T11:35:32.415Z,20.39
2019-02-20T11:38:01.311Z,20.55
2019-02-20T11:40:30.033Z,20.38
2019-02-20T11:42:58.767Z,20.33
2019-02-20T11:45:27.661Z,20.28
2019-02-20T11:47:56.383Z,20.21
2019-02-20T11:50:25.118Z,20.16
2019-02-20T11:52:53.984Z,19.88
2019-02-20T11:55:22.745Z,19.88
2019-02-20T11:57:51.489Z,19.90
2019-02-20T12:00:20.424Z,20.20
2019-02-20T12:02:49.157Z,20.26
2019-02-20T12:05:17.884Z,20.21
2019-02-20T12:07:46.665Z,20.03
2019-02-20T12:10:17.751Z,19.90
2019-02-20T12:12:46.478Z,19.72
2019-02-20T12:15:15.247Z,19.68
2019-02-20T12:17:43.988Z,19.75
2019-02-20T12:20:12.912Z,19.68
2019-02-20T12:22:41.719Z,19.61
2019-02-20T12:25:11.025Z,19.64
2019-02-20T12:27:39.743Z,19.72
2019-02-20T12:30:12.633Z,19.75
2019-02-20T12:32:41.656Z,19.66
2019-02-20T12:35:10.487Z,19.74
2019-02-20T12:37:39.467Z,19.74
2019-02-20T12:40:09.683Z,19.79
2019-02-20T12:42:38.467Z,19.64
2019-02-20T12:45:10.512Z,19.59
2019-02-20T12:47:39.239Z,19.56
2019-02-20T12:50:10.462Z,19.48
2019-02-20T12:52:39.348Z,19.60
2019-02-20T12:55:09.076Z,19.72
2019-02-20T12:57:37.798Z,19.63
2019-02-20T13:00:09.821Z,19.60
2019-02-20T13:02:38.559Z,19.62
2019-02-20T13:05:08.083Z,19.86
2019-02-20T13:07:36.883Z,19.89
2019-02-20T13:10:06.012Z,19.69
2019-02-20T13:12:34.744Z,19.63
2019-02-20T13:15:03.963Z,19.50
2019-02-20T13:17:32.721Z,19.47
2019-02-20T13:20:01.490Z,19.27
2019-02-20T13:22:30.622Z,19.28
2019-02-20T13:24:59.341Z,19.51
2019-02-20T13:27:28.059Z,19.41
2019-02-20T13:29:56.917Z,19.36
2019-02-20T13:32:25.643Z,19.45
2019-02-20T13:34:54.365Z,19.57
2019-02-20T13:37:23.134Z,19.52
2019-02-20T13:39:52.202Z,19.69
2019-02-20T13:42:21.206Z,19.61
2019-02-20T13:44:50.170Z,19.54
2019-02-20T13:47:18.898Z,19.72
2019-02-20T13:49:47.626Z,19.80
2019-02-20T13:52:16.608Z,19.63
2019-02-20T13:54:45.344Z,19.55
2019-02-20T13:57:14.057Z,19.65
2019-02-20T13:59:42.944Z,19.57
2019-02-20T14:02:11.669Z,19.57
2019-02-20T14:04:40.401Z,19.37
2019-02-20T14:07:09.169Z,19.27
2019-02-20T14:09:37.913Z,19.23
2019-02-20T14:12:07.279Z,19.30
2019-02-20T14:14:36.630Z,19.28
2019-02-20T14:17:05.355Z,19.14
2019-02-20T14:19:34.077Z,19.16
2019-02-20T14:22:04.231Z,19.14
2019-02-20T14:24:32.950Z,19.01
2019-02-20T14:27:10.264Z,18.85
2019-02-20T14:29:32.407Z,18.80
2019-02-20T14:32:01.161Z,18.67
2019-02-20T14:34:29.878Z,18.65
2019-02-20T14:36:59.175Z,18.67
2019-02-20T14:39:27.901Z,18.61
2019-02-20T14:41:56.636Z,18.58
2019-02-20T14:44:25.752Z,18.73
2019-02-20T14:46:54.660Z,18.81
2019-02-20T14:49:23.389Z,18.65
2019-02-20T14:51:52.346Z,18.74
2019-02-20T14:54:21.080Z,18.51
2019-02-20T14:56:49.805Z,18.33
2019-02-20T14:59:18.604Z,18.25
2019-02-20T15:01:47.348Z,18.15
2019-02-20T15:04:16.073Z,17.90
2019-02-20T15:06:45.261Z,17.79
2019-02-20T15:09:13.989Z,17.61
2019-02-20T15:11:42.710Z,17.58
2019-02-20T15:14:11.686Z,17.53
2019-02-20T15:16:40.422Z,17.35
2019-02-20T15:19:09.421Z,17.35
2019-02-20T15:21:38.192Z,17.18
2019-02-20T15:24:06.937Z,17.02
2019-02-20T15:26:35.665Z,16.90
2019-02-20T15:29:04.637Z,16.84
2019-02-20T15:31:34.042Z,16.86
2019-02-20T15:34:04.863Z,16.73
2019-02-20T15:36:33.850Z,16.59
2019-02-20T15:39:02.584Z,16.35
2019-02-20T15:41:35.388Z,16.05
2019-02-20T15:44:04.696Z,15.96
2019-02-20T15:46:33.414Z,15.58
2019-02-20T15:49:02.338Z,15.43
2019-02-20T15:51:31.533Z,15.04
2019-02-20T15:54:00.277Z,14.96
2019-02-20T15:56:29.005Z,14.78
2019-02-20T15:58:57.785Z,14.67
2019-02-20T16:01:26.513Z,14.70
2019-02-20T16:03:55.250Z,14.70
2019-02-20T16:06:24.404Z,14.36
2019-02-20T16:08:53.110Z,14.28
2019-02-20T16:11:21.842Z,14.31
2019-02-20T16:13:50.738Z,14.34
2019-02-20T16:16:19.468Z,14.23
2019-02-20T16:18:48.200Z,14.13
2019-02-20T16:21:17.044Z,14.05
2019-02-20T16:23:45.782Z,13.80
2019-02-20T16:26:14.509Z,13.65
2019-02-20T16:28:43.405Z,13.44
2019-02-20T16:31:12.124Z,13.25
2019-02-20T16:33:40.885Z,13.04
2019-02-20T16:36:10.132Z,12.74
2019-02-20T16:38:39.192Z,12.61
2019-02-20T16:41:07.920Z,12.43
2019-02-20T16:43:36.896Z,12.37
2019-02-20T16:46:05.733Z,12.53
2019-02-20T16:48:34.455Z,12.53
2019-02-20T16:51:03.990Z,12.46
2019-02-20T16:53:32.800Z,12.53
2019-02-20T16:56:01.687Z,12.44
2019-02-20T16:58:30.549Z,12.47
2019-02-20T17:00:59.275Z,12.56
2019-02-20T17:03:28.001Z,12.53
2019-02-20T17:05:57.119Z,12.73
2019-02-20T17:08:26.289Z,12.73
2019-02-20T17:10:55.943Z,12.24
2019-02-20T17:13:24.814Z,11.93
2019-02-20T17:15:54.150Z,11.79
2019-02-20T17:18:22.907Z,11.89
2019-02-20T17:20:52.103Z,12.02
2019-02-20T17:23:20.824Z,12.11
2019-02-20T17:25:49.555Z,12.11
2019-02-20T17:28:18.426Z,12.00
2019-02-20T17:30:47.145Z,11.91
2019-02-20T17:33:15.870Z,11.81
2019-02-20T17:35:44.681Z,11.82
2019-02-20T17:38:13.818Z,11.68
2019-02-20T17:40:42.650Z,11.53
2019-02-20T17:43:11.812Z,11.53
2019-02-20T17:45:40.539Z,11.29
2019-02-20T17:48:09.268Z,10.95
2019-02-20T17:50:38.489Z,10.85
2019-02-20T17:53:07.203Z,10.79
2019-02-20T17:55:36.246Z,10.60
2019-02-20T17:58:05.383Z,10.47
2019-02-20T18:00:34.114Z,10.38
2019-02-20T18:03:02.849Z,10.24
2019-02-20T18:05:31.845Z,10.21
2019-02-20T18:08:00.560Z,10.07
2019-02-20T18:10:29.292Z,10.16
2019-02-20T18:12:58.183Z,10.23
2019-02-20T18:15:26.910Z,10.28
2019-02-20T18:17:55.662Z,10.15
2019-02-20T18:20:25.219Z,10.15
2019-02-20T18:22:54.102Z,10.13
2019-02-20T18:25:22.957Z,10.33
2019-02-20T18:27:51.738Z,10.56
2019-02-20T18:30:20.489Z,10.62
2019-02-20T18:32:49.221Z,10.71
2019-02-20T18:35:19.663Z,10.73
2019-02-20T18:37:48.380Z,10.62
2019-02-20T18:40:17.701Z,10.73
2019-02-20T18:42:46.563Z,10.77
2019-02-20T18:45:16.164Z,10.74
2019-02-20T18:47:44.921Z,10.54
2019-02-20T18:50:15.182Z,10.36
2019-02-20T18:52:44.012Z,10.24
2019-02-20T18:55:13.949Z,10.18
2019-02-20T18:57:43.250Z,10.10
2019-02-20T19:00:17.200Z,9.97
2019-02-20T19:02:45.907Z,9.93
2019-02-20T19:05:15.133Z,9.88
2019-02-20T19:07:43.969Z,9.82
2019-02-20T19:10:35.477Z,9.75
2019-02-20T19:13:12.921Z,9.72
2019-02-20T19:15:47.649Z,9.48
2019-02-20T19:18:37.253Z,9.37
2019-02-20T19:21:34.665Z,9.36
2019-02-20T19:24:15.289Z,9.32
2019-02-20T19:26:55.942Z,9.38
2019-02-20T19:29:47.072Z,9.39
2019-02-20T19:32:27.670Z,9.47
2019-02-20T19:35:26.699Z,9.65
2019-02-20T19:38:16.727Z,9.88
2019-02-20T19:41:07.985Z,9.97
2019-02-20T19:43:53.501Z,9.96
2019-02-20T19:46:45.692Z,10.06
2019-02-20T19:49:33.877Z,9.97
2019-02-20T19:52:05.582Z,9.91
2019-02-20T19:54:43.562Z,9.95
2019-02-20T19:57:21.207Z,9.98
2019-02-20T20:00:01.999Z,9.83
2019-02-20T20:02:42.735Z,9.80
2019-02-20T20:05:35.841Z,9.68
2019-02-20T20:08:16.616Z,9.68
2019-02-20T20:10:54.527Z,9.70
2019-02-20T20:13:26.166Z,9.60
2019-02-20T20:16:12.907Z,9.54
2019-02-20T20:19:13.745Z,9.31
2019-02-20T20:22:02.092Z,9.14
2019-02-20T20:24:36.612Z,8.87
2019-02-20T20:27:28.405Z,8.53
2019-02-20T20:30:11.425Z,8.40
2019-02-20T20:32:53.802Z,8.56
2019-02-20T20:35:49.607Z,8.50
2019-02-20T20:38:30.322Z,8.35
2019-02-20T20:41:20.034Z,8.40
2019-02-20T20:44:13.215Z,8.38
2019-02-20T20:46:50.577Z,8.31
2019-02-20T20:49:22.310Z,8.26
2019-02-20T20:52:13.330Z,8.21
2019-02-20T20:55:06.317Z,8.28
2019-02-20T20:57:43.986Z,8.27
2019-02-20T21:00:42.910Z,8.23
2019-02-20T21:03:14.561Z,8.19
2019-02-20T21:05:52.149Z,8.21
2019-02-20T21:08:23.798Z,8.21
2019-02-20T21:11:01.452Z,8.20
2019-02-20T21:13:53.724Z,8.24
2019-02-20T21:17:00.001Z,8.23
2019-02-20T21:19:53.971Z,8.17
2019-02-20T21:22:55.694Z,7.92
2019-02-20T21:25:36.029Z,7.68
2019-02-20T21:28:19.673Z,7.57
2019-02-20T21:31:05.653Z,7.47
2019-02-20T21:33:53.667Z,7.40
2019-02-20T21:36:40.003Z,7.33
2019-02-20T21:39:27.055Z,7.32
2019-02-20T21:41:58.698Z,7.29
2019-02-20T21:44:36.442Z,7.27
2019-02-20T21:47:08.083Z,7.31
2019-02-20T21:49:44.064Z,7.40
2019-02-20T21:52:19.990Z,7.35
2019-02-20T21:55:14.972Z,7.40
2019-02-20T21:58:04.179Z,7.37
2019-02-20T22:00:35.991Z,7.39
2019-02-20T22:03:10.315Z,7.45
2019-02-20T22:06:00.513Z,7.43
2019-02-20T22:08:46.797Z,7.46
2019-02-20T22:11:25.092Z,7.57
2019-02-20T22:14:17.840Z,7.48
2019-02-20T22:17:24.722Z,7.48
2019-02-20T22:20:14.658Z,7.28
2019-02-20T22:22:58.396Z,7.21
2019-02-20T22:25:47.445Z,7.20
2019-02-20T22:28:38.187Z,7.03
2019-02-20T22:31:35.627Z,6.97
2019-02-20T22:34:34.095Z,6.81
2019-02-20T22:37:27.028Z,6.69
2019-02-20T22:39:59.022Z,6.60
2019-02-20T22:42:30.676Z,6.64
2019-02-20T22:45:17.730Z,6.59
2019-02-20T22:47:52.258Z,6.59
2019-02-20T22:50:40.766Z,6.69
2019-02-20T22:53:12.405Z,6.76
2019-02-20T22:55:49.829Z,6.79
2019-02-20T22:58:24.397Z,6.84
2019-02-20T23:01:05.451Z,6.90
2019-02-20T23:03:52.210Z,6.80
2019-02-20T23:06:51.034Z,6.77
2019-02-20T23:09:31.710Z,6.73
2019-02-20T23:12:09.375Z,6.68
2019-02-20T23:14:56.068Z,6.67
2019-02-20T23:17:26.941Z,6.77
2019-02-20T23:19:55.723Z,6.85
2019-02-20T23:22:24.432Z,7.03
2019-02-20T23:24:53.307Z,6.95
2019-02-20T23:27:22.027Z,6.98
2019-02-20T23:29:50.746Z,7.06
2019-02-20T23:32:19.962Z,7.06
2019-02-20T23:34:48.697Z,6.95
2019-02-20T23:37:17.440Z,6.92
2019-02-20T23:39:46.726Z,6.84
2019-02-20T23:42:15.454Z,6.74
2019-02-20T23:44:44.176Z,6.47
2019-02-20T23:47:12.958Z,6.42
2019-02-20T23:49:41.687Z,6.36
2019-02-20T23:52:10.407Z,6.24
2019-02-20T23:54:39.229Z,6.04
2019-02-20T23:57:07.981Z,6.03
2019-02-20T23:59:36.703Z,6.03
